sensor_id;sensor_type;location;lat;lon;timestamp;temperature;humidity
53904;DHT22;39812;52.430;16.936;2023-05-10T00:00:22;8.30;78.70
53904;DHT22;39812;52.430;16.936;2023-05-10T00:02:49;8.30;78.60
53904;DHT22;39812;52.430;16.936;2023-05-10T00:05:15;8.30;78.70
53904;DHT22;39812;52.430;16.936;2023-05-10T00:07:40;8.30;78.40
53904;DHT22;39812;52.430;16.936;2023-05-10T00:10:10;8.30;78.40
53904;DHT22;39812;52.430;16.936;2023-05-10T00:12:35;8.30;78.30
53904;DHT22;39812;52.430;16.936;2023-05-10T00:15:01;8.30;78.20
53904;DHT22;39812;52.430;16.936;2023-05-10T00:17:28;8.30;78.00
53904;DHT22;39812;52.430;16.936;2023-05-10T00:19:54;8.30;78.00
53904;DHT22;39812;52.430;16.936;2023-05-10T00:22:19;8.20;78.20
53904;DHT22;39812;52.430;16.936;2023-05-10T00:24:45;8.20;78.20
53904;DHT22;39812;52.430;16.936;2023-05-10T00:27:11;8.20;78.60
53904;DHT22;39812;52.430;16.936;2023-05-10T00:29:36;8.00;78.60
53904;DHT22;39812;52.430;16.936;2023-05-10T00:32:02;8.10;78.60
53904;DHT22;39812;52.430;16.936;2023-05-10T00:34:28;8.10;78.60
53904;DHT22;39812;52.430;16.936;2023-05-10T00:36:53;8.10;79.00
53904;DHT22;39812;52.430;16.936;2023-05-10T00:39:19;8.00;79.10
53904;DHT22;39812;52.430;16.936;2023-05-10T00:41:45;8.00;79.20
53904;DHT22;39812;52.430;16.936;2023-05-10T00:44:11;8.00;79.20
53904;DHT22;39812;52.430;16.936;2023-05-10T00:46:36;7.90;79.40
53904;DHT22;39812;52.430;16.936;2023-05-10T00:49:02;7.90;79.50
53904;DHT22;39812;52.430;16.936;2023-05-10T00:51:28;7.80;79.80
53904;DHT22;39812;52.430;16.936;2023-05-10T00:53:54;7.70;80.10
53904;DHT22;39812;52.430;16.936;2023-05-10T00:56:21;7.70;80.30
53904;DHT22;39812;52.430;16.936;2023-05-10T00:58:48;7.60;80.40
53904;DHT22;39812;52.430;16.936;2023-05-10T01:01:14;7.60;80.60
53904;DHT22;39812;52.430;16.936;2023-05-10T01:03:40;7.60;80.60
53904;DHT22;39812;52.430;16.936;2023-05-10T01:06:07;7.60;80.60
53904;DHT22;39812;52.430;16.936;2023-05-10T01:08:33;7.50;80.90
53904;DHT22;39812;52.430;16.936;2023-05-10T01:10:59;7.50;81.10
53904;DHT22;39812;52.430;16.936;2023-05-10T01:13:33;7.40;81.30
53904;DHT22;39812;52.430;16.936;2023-05-10T01:16:00;7.30;81.90
53904;DHT22;39812;52.430;16.936;2023-05-10T01:18:35;7.40;81.40
53904;DHT22;39812;52.430;16.936;2023-05-10T01:24:12;7.20;81.90
53904;DHT22;39812;52.430;16.936;2023-05-10T01:32:14;7.00;82.30
53904;DHT22;39812;52.430;16.936;2023-05-10T01:35:00;7.00;82.60
53904;DHT22;39812;52.430;16.936;2023-05-10T01:37:42;7.00;83.10
53904;DHT22;39812;52.430;16.936;2023-05-10T01:40:32;6.90;83.30
53904;DHT22;39812;52.430;16.936;2023-05-10T01:43:03;6.90;83.40
53904;DHT22;39812;52.430;16.936;2023-05-10T01:48:21;6.70;83.70
53904;DHT22;39812;52.430;16.936;2023-05-10T01:50:48;6.70;83.70
53904;DHT22;39812;52.430;16.936;2023-05-10T01:53:18;6.80;83.70
53904;DHT22;39812;52.430;16.936;2023-05-10T01:55:48;6.90;83.60
53904;DHT22;39812;52.430;16.936;2023-05-10T01:58:21;6.80;83.50
53904;DHT22;39812;52.430;16.936;2023-05-10T02:00:48;6.70;83.90
53904;DHT22;39812;52.430;16.936;2023-05-10T02:03:16;6.70;84.00
53904;DHT22;39812;52.430;16.936;2023-05-10T02:05:43;6.60;84.20
53904;DHT22;39812;52.430;16.936;2023-05-10T02:08:11;6.70;84.20
53904;DHT22;39812;52.430;16.936;2023-05-10T02:10:39;6.70;84.00
53904;DHT22;39812;52.430;16.936;2023-05-10T02:13:06;6.70;84.20
53904;DHT22;39812;52.430;16.936;2023-05-10T02:15:32;6.60;84.30
53904;DHT22;39812;52.430;16.936;2023-05-10T02:18:00;6.60;84.60
53904;DHT22;39812;52.430;16.936;2023-05-10T02:20:27;6.40;85.20
53904;DHT22;39812;52.430;16.936;2023-05-10T02:22:55;6.50;85.10
53904;DHT22;39812;52.430;16.936;2023-05-10T02:25:23;6.50;85.50
53904;DHT22;39812;52.430;16.936;2023-05-10T02:27:50;6.50;85.20
53904;DHT22;39812;52.430;16.936;2023-05-10T02:30:17;6.30;85.40
53904;DHT22;39812;52.430;16.936;2023-05-10T02:32:44;6.50;85.80
53904;DHT22;39812;52.430;16.936;2023-05-10T02:35:10;6.40;85.50
53904;DHT22;39812;52.430;16.936;2023-05-10T02:37:37;6.40;85.60
53904;DHT22;39812;52.430;16.936;2023-05-10T02:40:05;6.40;85.70
53904;DHT22;39812;52.430;16.936;2023-05-10T02:42:35;6.50;85.80
53904;DHT22;39812;52.430;16.936;2023-05-10T02:45:03;6.40;85.40
53904;DHT22;39812;52.430;16.936;2023-05-10T02:47:30;6.50;85.80
53904;DHT22;39812;52.430;16.936;2023-05-10T02:49:56;6.40;85.70
53904;DHT22;39812;52.430;16.936;2023-05-10T02:52:26;6.40;86.00
53904;DHT22;39812;52.430;16.936;2023-05-10T02:54:55;6.40;86.00
53904;DHT22;39812;52.430;16.936;2023-05-10T02:57:28;6.40;86.40
53904;DHT22;39812;52.430;16.936;2023-05-10T02:59:55;6.40;86.20
53904;DHT22;39812;52.430;16.936;2023-05-10T03:02:21;6.40;87.00
53904;DHT22;39812;52.430;16.936;2023-05-10T03:04:47;6.40;86.60
53904;DHT22;39812;52.430;16.936;2023-05-10T03:07:13;6.40;86.40
53904;DHT22;39812;52.430;16.936;2023-05-10T03:09:39;6.40;86.40
53904;DHT22;39812;52.430;16.936;2023-05-10T03:17:52;6.50;86.30
53904;DHT22;39812;52.430;16.936;2023-05-10T03:20:32;6.50;86.10
53904;DHT22;39812;52.430;16.936;2023-05-10T03:23:07;6.60;85.90
53904;DHT22;39812;52.430;16.936;2023-05-10T03:25:37;6.70;85.80
53904;DHT22;39812;52.430;16.936;2023-05-10T03:28:04;6.70;85.70
53904;DHT22;39812;52.430;16.936;2023-05-10T03:30:30;6.70;85.50
53904;DHT22;39812;52.430;16.936;2023-05-10T03:32:57;6.70;85.40
53904;DHT22;39812;52.430;16.936;2023-05-10T03:35:23;6.70;85.80
53904;DHT22;39812;52.430;16.936;2023-05-10T03:37:49;6.60;85.90
53904;DHT22;39812;52.430;16.936;2023-05-10T03:40:15;6.70;85.70
53904;DHT22;39812;52.430;16.936;2023-05-10T03:42:41;6.70;85.70
53904;DHT22;39812;52.430;16.936;2023-05-10T03:45:08;6.70;85.50
53904;DHT22;39812;52.430;16.936;2023-05-10T03:47:33;6.80;85.50
53904;DHT22;39812;52.430;16.936;2023-05-10T03:49:59;6.80;85.30
53904;DHT22;39812;52.430;16.936;2023-05-10T03:52:25;6.90;85.30
53904;DHT22;39812;52.430;16.936;2023-05-10T03:54:50;6.90;85.10
53904;DHT22;39812;52.430;16.936;2023-05-10T03:57:16;7.00;85.20
53904;DHT22;39812;52.430;16.936;2023-05-10T03:59:42;6.90;85.30
53904;DHT22;39812;52.430;16.936;2023-05-10T04:02:07;7.00;84.90
53904;DHT22;39812;52.430;16.936;2023-05-10T04:04:33;7.10;84.70
53904;DHT22;39812;52.430;16.936;2023-05-10T04:06:58;7.10;84.50
53904;DHT22;39812;52.430;16.936;2023-05-10T04:09:24;7.10;84.50
53904;DHT22;39812;52.430;16.936;2023-05-10T04:11:50;7.20;84.40
53904;DHT22;39812;52.430;16.936;2023-05-10T04:14:16;7.20;84.20
53904;DHT22;39812;52.430;16.936;2023-05-10T04:16:42;7.30;84.10
53904;DHT22;39812;52.430;16.936;2023-05-10T04:19:07;7.30;84.10
53904;DHT22;39812;52.430;16.936;2023-05-10T04:21:33;7.40;83.90
53904;DHT22;39812;52.430;16.936;2023-05-10T04:23:58;7.50;83.90
53904;DHT22;39812;52.430;16.936;2023-05-10T04:26:24;7.60;83.70
53904;DHT22;39812;52.430;16.936;2023-05-10T04:28:50;7.60;83.10
53904;DHT22;39812;52.430;16.936;2023-05-10T04:31:16;7.70;83.10
53904;DHT22;39812;52.430;16.936;2023-05-10T04:33:42;7.80;83.00
53904;DHT22;39812;52.430;16.936;2023-05-10T04:36:08;7.80;82.80
53904;DHT22;39812;52.430;16.936;2023-05-10T04:38:34;7.90;82.80
53904;DHT22;39812;52.430;16.936;2023-05-10T04:41:07;7.90;82.50
53904;DHT22;39812;52.430;16.936;2023-05-10T04:43:33;8.00;82.80
53904;DHT22;39812;52.430;16.936;2023-05-10T04:45:59;8.20;82.10
53904;DHT22;39812;52.430;16.936;2023-05-10T04:48:24;8.30;82.00
53904;DHT22;39812;52.430;16.936;2023-05-10T04:50:50;8.30;81.60
53904;DHT22;39812;52.430;16.936;2023-05-10T04:53:16;8.30;81.50
53904;DHT22;39812;52.430;16.936;2023-05-10T04:55:41;8.30;81.60
53904;DHT22;39812;52.430;16.936;2023-05-10T04:58:07;8.40;81.80
53904;DHT22;39812;52.430;16.936;2023-05-10T05:00:33;8.50;81.50
53904;DHT22;39812;52.430;16.936;2023-05-10T05:02:59;8.60;81.20
53904;DHT22;39812;52.430;16.936;2023-05-10T05:05:25;8.60;80.90
53904;DHT22;39812;52.430;16.936;2023-05-10T05:07:50;8.70;80.80
53904;DHT22;39812;52.430;16.936;2023-05-10T05:10:16;8.80;81.10
53904;DHT22;39812;52.430;16.936;2023-05-10T05:12:41;9.00;80.60
53904;DHT22;39812;52.430;16.936;2023-05-10T05:15:07;8.90;80.20
53904;DHT22;39812;52.430;16.936;2023-05-10T05:17:36;9.00;80.60
53904;DHT22;39812;52.430;16.936;2023-05-10T05:20:02;9.10;80.60
53904;DHT22;39812;52.430;16.936;2023-05-10T05:22:28;9.20;80.50
53904;DHT22;39812;52.430;16.936;2023-05-10T05:24:54;9.30;80.40
53904;DHT22;39812;52.430;16.936;2023-05-10T05:27:20;9.40;80.00
53904;DHT22;39812;52.430;16.936;2023-05-10T05:29:55;9.40;79.70
53904;DHT22;39812;52.430;16.936;2023-05-10T05:32:22;9.50;79.30
53904;DHT22;39812;52.430;16.936;2023-05-10T05:34:48;9.50;79.10
53904;DHT22;39812;52.430;16.936;2023-05-10T05:37:18;9.60;79.10
53904;DHT22;39812;52.430;16.936;2023-05-10T05:39:45;9.60;78.90
53904;DHT22;39812;52.430;16.936;2023-05-10T05:42:11;9.70;79.00
53904;DHT22;39812;52.430;16.936;2023-05-10T05:44:37;9.70;78.80
53904;DHT22;39812;52.430;16.936;2023-05-10T05:47:03;9.80;78.70
53904;DHT22;39812;52.430;16.936;2023-05-10T05:49:28;9.90;78.80
53904;DHT22;39812;52.430;16.936;2023-05-10T05:51:54;10.00;78.90
53904;DHT22;39812;52.430;16.936;2023-05-10T05:54:20;10.10;78.40
53904;DHT22;39812;52.430;16.936;2023-05-10T05:56:45;10.10;78.10
53904;DHT22;39812;52.430;16.936;2023-05-10T05:59:11;10.30;78.00
53904;DHT22;39812;52.430;16.936;2023-05-10T06:01:37;10.30;77.70
53904;DHT22;39812;52.430;16.936;2023-05-10T06:04:02;10.40;77.80
53904;DHT22;39812;52.430;16.936;2023-05-10T06:06:28;10.60;77.40
53904;DHT22;39812;52.430;16.936;2023-05-10T06:08:54;10.60;76.70
53904;DHT22;39812;52.430;16.936;2023-05-10T06:11:20;10.70;76.50
53904;DHT22;39812;52.430;16.936;2023-05-10T06:13:47;10.80;76.90
53904;DHT22;39812;52.430;16.936;2023-05-10T06:16:12;10.90;76.70
53904;DHT22;39812;52.430;16.936;2023-05-10T06:18:38;11.10;76.70
53904;DHT22;39812;52.430;16.936;2023-05-10T06:21:04;11.20;76.20
53904;DHT22;39812;52.430;16.936;2023-05-10T06:23:30;11.30;75.70
53904;DHT22;39812;52.430;16.936;2023-05-10T06:25:55;11.30;75.70
53904;DHT22;39812;52.430;16.936;2023-05-10T06:28:21;11.40;75.30
53904;DHT22;39812;52.430;16.936;2023-05-10T06:30:46;11.50;75.40
53904;DHT22;39812;52.430;16.936;2023-05-10T06:33:13;11.60;74.80
53904;DHT22;39812;52.430;16.936;2023-05-10T06:35:39;11.70;74.60
53904;DHT22;39812;52.430;16.936;2023-05-10T06:38:04;11.80;74.40
53904;DHT22;39812;52.430;16.936;2023-05-10T06:40:30;11.90;74.50
53904;DHT22;39812;52.430;16.936;2023-05-10T06:42:56;12.00;74.30
53904;DHT22;39812;52.430;16.936;2023-05-10T06:45:21;12.20;73.70
53904;DHT22;39812;52.430;16.936;2023-05-10T06:47:47;12.20;73.00
53904;DHT22;39812;52.430;16.936;2023-05-10T06:50:13;12.20;73.00
53904;DHT22;39812;52.430;16.936;2023-05-10T06:52:39;12.30;73.30
53904;DHT22;39812;52.430;16.936;2023-05-10T06:55:05;12.40;73.20
53904;DHT22;39812;52.430;16.936;2023-05-10T06:57:31;12.50;72.70
53904;DHT22;39812;52.430;16.936;2023-05-10T06:59:58;12.50;72.30
53904;DHT22;39812;52.430;16.936;2023-05-10T07:02:24;12.60;72.30
53904;DHT22;39812;52.430;16.936;2023-05-10T07:04:49;12.70;71.60
53904;DHT22;39812;52.430;16.936;2023-05-10T07:07:17;12.80;71.60
53904;DHT22;39812;52.430;16.936;2023-05-10T07:09:42;12.80;71.10
53904;DHT22;39812;52.430;16.936;2023-05-10T07:12:08;12.90;71.30
53904;DHT22;39812;52.430;16.936;2023-05-10T07:14:34;12.90;70.80
53904;DHT22;39812;52.430;16.936;2023-05-10T07:16:59;12.90;70.90
53904;DHT22;39812;52.430;16.936;2023-05-10T07:19:25;13.00;71.30
53904;DHT22;39812;52.430;16.936;2023-05-10T07:21:51;13.20;71.00
53904;DHT22;39812;52.430;16.936;2023-05-10T07:24:16;13.30;71.00
53904;DHT22;39812;52.430;16.936;2023-05-10T07:26:42;13.40;70.20
53904;DHT22;39812;52.430;16.936;2023-05-10T07:29:08;13.50;70.10
53904;DHT22;39812;52.430;16.936;2023-05-10T07:31:34;13.50;70.50
53904;DHT22;39812;52.430;16.936;2023-05-10T07:33:59;13.70;71.10
53904;DHT22;39812;52.430;16.936;2023-05-10T07:36:25;13.80;70.20
53904;DHT22;39812;52.430;16.936;2023-05-10T07:38:50;13.90;70.20
53904;DHT22;39812;52.430;16.936;2023-05-10T07:41:16;14.00;69.90
53904;DHT22;39812;52.430;16.936;2023-05-10T07:43:42;14.10;69.90
53904;DHT22;39812;52.430;16.936;2023-05-10T07:46:07;14.20;68.80
53904;DHT22;39812;52.430;16.936;2023-05-10T07:48:36;14.20;69.00
53904;DHT22;39812;52.430;16.936;2023-05-10T07:51:01;14.30;68.60
53904;DHT22;39812;52.430;16.936;2023-05-10T07:53:27;14.40;69.40
53904;DHT22;39812;52.430;16.936;2023-05-10T07:55:59;14.60;68.70
53904;DHT22;39812;52.430;16.936;2023-05-10T07:58:44;14.70;68.30
53904;DHT22;39812;52.430;16.936;2023-05-10T08:01:10;14.80;68.30
53904;DHT22;39812;52.430;16.936;2023-05-10T08:03:35;14.90;67.90
53904;DHT22;39812;52.430;16.936;2023-05-10T08:06:01;15.10;68.20
53904;DHT22;39812;52.430;16.936;2023-05-10T08:08:26;15.20;68.10
53904;DHT22;39812;52.430;16.936;2023-05-10T08:10:52;15.30;67.60
53904;DHT22;39812;52.430;16.936;2023-05-10T08:13:17;15.30;66.80
53904;DHT22;39812;52.430;16.936;2023-05-10T08:15:43;15.30;67.30
53904;DHT22;39812;52.430;16.936;2023-05-10T08:18:09;15.30;67.10
53904;DHT22;39812;52.430;16.936;2023-05-10T08:20:34;15.30;67.50
53904;DHT22;39812;52.430;16.936;2023-05-10T08:23:00;15.50;67.70
53904;DHT22;39812;52.430;16.936;2023-05-10T08:25:25;15.70;66.90
53904;DHT22;39812;52.430;16.936;2023-05-10T08:27:51;15.70;66.50
53904;DHT22;39812;52.430;16.936;2023-05-10T08:30:16;15.80;67.50
53904;DHT22;39812;52.430;16.936;2023-05-10T08:32:42;16.00;66.70
53904;DHT22;39812;52.430;16.936;2023-05-10T08:35:08;16.10;66.50
53904;DHT22;39812;52.430;16.936;2023-05-10T08:37:34;16.10;65.50
53904;DHT22;39812;52.430;16.936;2023-05-10T08:39:59;16.20;65.70
53904;DHT22;39812;52.430;16.936;2023-05-10T08:42:28;16.30;65.20
53904;DHT22;39812;52.430;16.936;2023-05-10T08:44:57;16.50;64.90
53904;DHT22;39812;52.430;16.936;2023-05-10T08:47:23;16.50;64.50
53904;DHT22;39812;52.430;16.936;2023-05-10T08:49:48;16.50;64.90
53904;DHT22;39812;52.430;16.936;2023-05-10T08:52:17;16.50;64.40
53904;DHT22;39812;52.430;16.936;2023-05-10T08:54:43;16.60;64.60
53904;DHT22;39812;52.430;16.936;2023-05-10T08:57:09;16.60;64.00
53904;DHT22;39812;52.430;16.936;2023-05-10T08:59:35;16.60;64.20
53904;DHT22;39812;52.430;16.936;2023-05-10T09:02:04;16.70;62.90
53904;DHT22;39812;52.430;16.936;2023-05-10T09:04:30;16.80;63.00
53904;DHT22;39812;52.430;16.936;2023-05-10T09:06:57;17.00;60.80
53904;DHT22;39812;52.430;16.936;2023-05-10T09:09:23;17.00;60.50
53904;DHT22;39812;52.430;16.936;2023-05-10T09:11:51;17.00;60.40
53904;DHT22;39812;52.430;16.936;2023-05-10T09:14:17;17.10;61.90
53904;DHT22;39812;52.430;16.936;2023-05-10T09:16:44;17.20;60.60
53904;DHT22;39812;52.430;16.936;2023-05-10T09:19:10;17.30;60.70
53904;DHT22;39812;52.430;16.936;2023-05-10T09:21:36;17.50;60.30
53904;DHT22;39812;52.430;16.936;2023-05-10T09:24:07;17.30;59.90
53904;DHT22;39812;52.430;16.936;2023-05-10T09:26:33;17.40;61.20
53904;DHT22;39812;52.430;16.936;2023-05-10T09:29:00;17.70;59.30
53904;DHT22;39812;52.430;16.936;2023-05-10T09:32:03;17.90;56.70
53904;DHT22;39812;52.430;16.936;2023-05-10T09:34:30;17.80;54.70
53904;DHT22;39812;52.430;16.936;2023-05-10T09:36:59;17.80;56.90
53904;DHT22;39812;52.430;16.936;2023-05-10T09:41:58;17.80;55.60
53904;DHT22;39812;52.430;16.936;2023-05-10T09:44:26;17.90;54.60
53904;DHT22;39812;52.430;16.936;2023-05-10T09:46:51;17.90;54.60
53904;DHT22;39812;52.430;16.936;2023-05-10T09:49:19;17.90;54.00
53904;DHT22;39812;52.430;16.936;2023-05-10T09:51:45;18.10;55.90
53904;DHT22;39812;52.430;16.936;2023-05-10T09:54:15;18.10;54.90
53904;DHT22;39812;52.430;16.936;2023-05-10T09:56:42;18.10;54.40
53904;DHT22;39812;52.430;16.936;2023-05-10T09:59:11;18.20;53.90
53904;DHT22;39812;52.430;16.936;2023-05-10T10:01:38;18.10;53.90
53904;DHT22;39812;52.430;16.936;2023-05-10T10:04:06;18.20;54.70
53904;DHT22;39812;52.430;16.936;2023-05-10T10:06:39;18.20;54.10
53904;DHT22;39812;52.430;16.936;2023-05-10T10:09:08;18.30;54.30
53904;DHT22;39812;52.430;16.936;2023-05-10T10:11:38;18.40;53.90
53904;DHT22;39812;52.430;16.936;2023-05-10T10:14:04;18.50;54.10
53904;DHT22;39812;52.430;16.936;2023-05-10T10:16:31;18.40;53.50
53904;DHT22;39812;52.430;16.936;2023-05-10T10:18:57;18.30;53.80
53904;DHT22;39812;52.430;16.936;2023-05-10T10:21:23;18.30;53.90
53904;DHT22;39812;52.430;16.936;2023-05-10T10:23:49;18.30;54.50
53904;DHT22;39812;52.430;16.936;2023-05-10T10:26:17;18.30;54.00
53904;DHT22;39812;52.430;16.936;2023-05-10T10:34:31;18.50;54.40
53904;DHT22;39812;52.430;16.936;2023-05-10T10:36:57;18.60;54.10
53904;DHT22;39812;52.430;16.936;2023-05-10T10:39:24;18.90;54.70
53904;DHT22;39812;52.430;16.936;2023-05-10T10:41:57;18.80;53.60
53904;DHT22;39812;52.430;16.936;2023-05-10T10:55:33;19.00;53.70
53904;DHT22;39812;52.430;16.936;2023-05-10T10:57:59;19.00;53.60
53904;DHT22;39812;52.430;16.936;2023-05-10T11:00:33;18.90;53.00
53904;DHT22;39812;52.430;16.936;2023-05-10T11:03:11;19.00;53.60
53904;DHT22;39812;52.430;16.936;2023-05-10T11:05:49;19.20;54.30
53904;DHT22;39812;52.430;16.936;2023-05-10T11:08:25;19.40;53.00
53904;DHT22;39812;52.430;16.936;2023-05-10T11:11:02;19.50;52.90
53904;DHT22;39812;52.430;16.936;2023-05-10T11:13:29;19.60;52.60
53904;DHT22;39812;52.430;16.936;2023-05-10T11:15:55;19.80;52.30
53904;DHT22;39812;52.430;16.936;2023-05-10T11:18:27;20.10;51.90
53904;DHT22;39812;52.430;16.936;2023-05-10T11:21:01;20.20;50.80
53904;DHT22;39812;52.430;16.936;2023-05-10T11:26:12;21.30;50.50
53904;DHT22;39812;52.430;16.936;2023-05-10T11:28:42;22.30;49.90
53904;DHT22;39812;52.430;16.936;2023-05-10T11:31:08;23.50;48.70
53904;DHT22;39812;52.430;16.936;2023-05-10T11:33:44;24.50;47.40
53904;DHT22;39812;52.430;16.936;2023-05-10T11:36:39;25.20;45.70
53904;DHT22;39812;52.430;16.936;2023-05-10T11:39:05;26.00;44.80
53904;DHT22;39812;52.430;16.936;2023-05-10T11:41:31;27.20;44.10
53904;DHT22;39812;52.430;16.936;2023-05-10T11:43:58;27.40;42.40
53904;DHT22;39812;52.430;16.936;2023-05-10T11:46:25;27.50;42.70
53904;DHT22;39812;52.430;16.936;2023-05-10T11:48:55;28.20;41.50
53904;DHT22;39812;52.430;16.936;2023-05-10T11:51:24;28.50;41.00
53904;DHT22;39812;52.430;16.936;2023-05-10T11:53:53;29.70;40.10
53904;DHT22;39812;52.430;16.936;2023-05-10T11:56:18;30.40;39.00
53904;DHT22;39812;52.430;16.936;2023-05-10T11:58:51;31.60;38.20
53904;DHT22;39812;52.430;16.936;2023-05-10T12:01:17;32.30;37.50
53904;DHT22;39812;52.430;16.936;2023-05-10T12:03:42;33.30;36.70
53904;DHT22;39812;52.430;16.936;2023-05-10T12:06:08;33.00;36.60
53904;DHT22;39812;52.430;16.936;2023-05-10T12:08:34;32.20;37.00
53904;DHT22;39812;52.430;16.936;2023-05-10T12:11:07;32.80;36.90
53904;DHT22;39812;52.430;16.936;2023-05-10T12:13:38;33.20;36.10
53904;DHT22;39812;52.430;16.936;2023-05-10T12:16:19;33.40;35.90
53904;DHT22;39812;52.430;16.936;2023-05-10T12:18:47;34.00;35.70
53904;DHT22;39812;52.430;16.936;2023-05-10T12:21:13;36.00;35.60
53904;DHT22;39812;52.430;16.936;2023-05-10T12:23:40;35.70;33.80
53904;DHT22;39812;52.430;16.936;2023-05-10T12:26:09;36.00;33.60
53904;DHT22;39812;52.430;16.936;2023-05-10T12:28:35;37.10;33.60
53904;DHT22;39812;52.430;16.936;2023-05-10T12:31:01;36.80;32.80
53904;DHT22;39812;52.430;16.936;2023-05-10T12:33:42;37.20;33.30
53904;DHT22;39812;52.430;16.936;2023-05-10T12:36:09;36.60;33.70
53904;DHT22;39812;52.430;16.936;2023-05-10T12:38:40;36.10;32.80
53904;DHT22;39812;52.430;16.936;2023-05-10T12:41:12;36.00;32.90
53904;DHT22;39812;52.430;16.936;2023-05-10T12:43:39;37.30;33.00
53904;DHT22;39812;52.430;16.936;2023-05-10T12:46:09;36.10;33.20
53904;DHT22;39812;52.430;16.936;2023-05-10T12:48:36;36.30;33.30
53904;DHT22;39812;52.430;16.936;2023-05-10T12:51:03;36.90;33.00
53904;DHT22;39812;52.430;16.936;2023-05-10T12:53:29;36.90;32.70
53904;DHT22;39812;52.430;16.936;2023-05-10T12:55:55;37.30;32.30
53904;DHT22;39812;52.430;16.936;2023-05-10T12:58:20;35.90;33.20
53904;DHT22;39812;52.430;16.936;2023-05-10T13:00:46;35.80;33.40
53904;DHT22;39812;52.430;16.936;2023-05-10T13:03:12;35.40;33.50
53904;DHT22;39812;52.430;16.936;2023-05-10T13:05:38;36.20;33.70
53904;DHT22;39812;52.430;16.936;2023-05-10T13:08:04;37.30;33.20
53904;DHT22;39812;52.430;16.936;2023-05-10T13:10:30;38.30;32.20
53904;DHT22;39812;52.430;16.936;2023-05-10T13:12:57;37.80;32.30
53904;DHT22;39812;52.430;16.936;2023-05-10T13:15:23;38.50;32.40
53904;DHT22;39812;52.430;16.936;2023-05-10T13:17:49;37.10;32.30
53904;DHT22;39812;52.430;16.936;2023-05-10T13:20:14;37.30;32.10
53904;DHT22;39812;52.430;16.936;2023-05-10T13:22:41;37.70;32.30
53904;DHT22;39812;52.430;16.936;2023-05-10T13:25:07;39.20;32.30
53904;DHT22;39812;52.430;16.936;2023-05-10T13:27:34;40.40;32.50
53904;DHT22;39812;52.430;16.936;2023-05-10T13:30:02;39.60;31.10
53904;DHT22;39812;52.430;16.936;2023-05-10T13:32:28;39.30;31.10
53904;DHT22;39812;52.430;16.936;2023-05-10T13:34:55;40.50;31.20
53904;DHT22;39812;52.430;16.936;2023-05-10T13:37:20;40.20;30.90
53904;DHT22;39812;52.430;16.936;2023-05-10T13:39:46;40.00;30.40
53904;DHT22;39812;52.430;16.936;2023-05-10T13:42:12;39.80;31.30
53904;DHT22;39812;52.430;16.936;2023-05-10T13:44:38;40.50;31.10
53904;DHT22;39812;52.430;16.936;2023-05-10T13:47:04;39.80;30.60
53904;DHT22;39812;52.430;16.936;2023-05-10T13:49:30;38.90;30.50
53904;DHT22;39812;52.430;16.936;2023-05-10T13:51:56;39.40;30.70
53904;DHT22;39812;52.430;16.936;2023-05-10T13:54:21;39.80;31.30
53904;DHT22;39812;52.430;16.936;2023-05-10T13:56:47;39.60;30.70
53904;DHT22;39812;52.430;16.936;2023-05-10T13:59:14;39.40;30.50
53904;DHT22;39812;52.430;16.936;2023-05-10T14:01:42;40.00;30.50
53904;DHT22;39812;52.430;16.936;2023-05-10T14:04:09;40.00;30.00
53904;DHT22;39812;52.430;16.936;2023-05-10T14:06:36;39.10;30.80
53904;DHT22;39812;52.430;16.936;2023-05-10T14:09:05;38.80;31.00
53904;DHT22;39812;52.430;16.936;2023-05-10T14:11:30;38.30;31.00
53904;DHT22;39812;52.430;16.936;2023-05-10T14:13:56;38.60;31.10
53904;DHT22;39812;52.430;16.936;2023-05-10T14:16:21;40.20;30.70
53904;DHT22;39812;52.430;16.936;2023-05-10T14:18:47;41.30;30.70
53904;DHT22;39812;52.430;16.936;2023-05-10T14:21:13;38.80;30.10
53904;DHT22;39812;52.430;16.936;2023-05-10T14:23:38;37.10;31.50
53904;DHT22;39812;52.430;16.936;2023-05-10T14:26:04;38.20;31.60
53904;DHT22;39812;52.430;16.936;2023-05-10T14:28:30;39.30;31.10
53904;DHT22;39812;52.430;16.936;2023-05-10T14:30:56;37.50;30.90
53904;DHT22;39812;52.430;16.936;2023-05-10T14:33:21;37.30;31.20
53904;DHT22;39812;52.430;16.936;2023-05-10T14:35:48;35.70;31.80
53904;DHT22;39812;52.430;16.936;2023-05-10T14:38:14;36.10;32.20
53904;DHT22;39812;52.430;16.936;2023-05-10T14:40:39;33.50;32.80
53904;DHT22;39812;52.430;16.936;2023-05-10T14:43:05;34.10;34.60
53904;DHT22;39812;52.430;16.936;2023-05-10T14:45:30;35.70;33.00
53904;DHT22;39812;52.430;16.936;2023-05-10T14:47:57;36.60;32.80
53904;DHT22;39812;52.430;16.936;2023-05-10T14:50:22;38.10;32.30
53904;DHT22;39812;52.430;16.936;2023-05-10T14:52:48;39.40;31.50
53904;DHT22;39812;52.430;16.936;2023-05-10T14:55:14;39.80;31.20
53904;DHT22;39812;52.430;16.936;2023-05-10T14:57:40;38.30;31.40
53904;DHT22;39812;52.430;16.936;2023-05-10T15:00:07;35.60;31.70
53904;DHT22;39812;52.430;16.936;2023-05-10T15:02:32;35.30;33.80
53904;DHT22;39812;52.430;16.936;2023-05-10T15:04:58;35.80;32.90
53904;DHT22;39812;52.430;16.936;2023-05-10T15:07:24;32.20;34.10
53904;DHT22;39812;52.430;16.936;2023-05-10T15:09:52;30.20;36.40
53904;DHT22;39812;52.430;16.936;2023-05-10T15:12:18;30.20;38.30
53904;DHT22;39812;52.430;16.936;2023-05-10T15:14:44;33.90;36.40
53904;DHT22;39812;52.430;16.936;2023-05-10T15:17:10;34.30;34.30
53904;DHT22;39812;52.430;16.936;2023-05-10T15:19:35;33.40;34.90
53904;DHT22;39812;52.430;16.936;2023-05-10T15:22:02;35.10;34.50
53904;DHT22;39812;52.430;16.936;2023-05-10T15:24:28;37.30;33.90
53904;DHT22;39812;52.430;16.936;2023-05-10T15:26:54;35.30;33.40
53904;DHT22;39812;52.430;16.936;2023-05-10T15:29:19;36.30;33.50
53904;DHT22;39812;52.430;16.936;2023-05-10T15:31:47;34.30;34.50
53904;DHT22;39812;52.430;16.936;2023-05-10T15:34:14;32.90;34.70
53904;DHT22;39812;52.430;16.936;2023-05-10T15:36:39;33.20;35.80
53904;DHT22;39812;52.430;16.936;2023-05-10T15:39:05;33.70;35.70
53904;DHT22;39812;52.430;16.936;2023-05-10T15:41:31;33.00;35.40
53904;DHT22;39812;52.430;16.936;2023-05-10T15:43:57;34.10;35.10
53904;DHT22;39812;52.430;16.936;2023-05-10T15:46:25;33.70;35.40
53904;DHT22;39812;52.430;16.936;2023-05-10T15:48:51;34.80;34.90
53904;DHT22;39812;52.430;16.936;2023-05-10T15:51:17;35.40;34.20
53904;DHT22;39812;52.430;16.936;2023-05-10T15:53:44;35.60;33.70
53904;DHT22;39812;52.430;16.936;2023-05-10T15:56:09;35.70;34.30
53904;DHT22;39812;52.430;16.936;2023-05-10T15:58:37;34.20;34.70
53904;DHT22;39812;52.430;16.936;2023-05-10T16:01:03;34.90;34.40